Time;durP1;ratioP1;P1;durP2;ratioP2;P2;SDS_P1;SDS_P2;PMS_P1;PMS_P2;Temp;Humidity;BMP_temperature;BMP_pressure;BME280_temperature;BME280_humidity;BME280_pressure;Samples;Min_cycle;Max_cycle;Signal;HPM_P1;HPM_P2
2024/01/10 00:00:55;;;;;;;61.92;36.40;;;-6.60;1.00;;;;;;5114760;28;20231;-71
2024/01/10 00:03:22;;;;;;;59.75;37.95;;;-6.60;1.00;;;;;;5116101;28;20246;-72
2024/01/10 00:05:49;;;;;;;59.13;36.20;;;-6.60;1.00;;;;;;5114468;28;20690;-74
2024/01/10 00:08:18;;;;;;;63.33;36.92;;;-6.70;1.00;;;;;;5114113;28;20239;-72
2024/01/10 00:10:45;;;;;;;61.65;39.67;;;-6.70;1.00;;;;;;5111177;27;21161;-71
2024/01/10 00:13:15;;;;;;;52.85;36.17;;;-6.70;1.00;;;;;;5114185;27;20933;-71
2024/01/10 00:15:42;;;;;;;57.17;35.42;;;-6.60;1.00;;;;;;5112331;28;20231;-78
2024/01/10 00:18:11;;;;;;;61.33;41.08;;;-6.70;1.00;;;;;;5106505;27;20235;-79
2024/01/10 00:20:38;;;;;;;67.55;38.70;;;-6.70;1.00;;;;;;5116463;28;20239;-78
2024/01/10 00:23:10;;;;;;;66.68;36.05;;;-6.70;1.00;;;;;;5114379;28;20267;-81
2024/01/10 00:25:38;;;;;;;60.88;38.10;;;-6.70;1.00;;;;;;5116037;28;20295;-77
2024/01/10 00:28:06;;;;;;;57.67;37.63;;;-6.70;1.00;;;;;;5078808;28;20239;-77
2024/01/10 00:30:34;;;;;;;61.25;37.97;;;-6.70;1.00;;;;;;5095309;28;20306;-80
2024/01/10 00:33:01;;;;;;;57.97;37.53;;;-6.70;1.00;;;;;;5107695;27;20249;-74
2024/01/10 00:35:29;;;;;;;59.42;39.35;;;-6.70;1.00;;;;;;5111698;28;20235;-75
2024/01/10 00:37:56;;;;;;;56.83;37.47;;;-6.70;1.00;;;;;;5111267;28;20695;-74
2024/01/10 00:40:24;;;;;;;59.05;38.15;;;-6.70;1.00;;;;;;5106081;28;20251;-73
2024/01/10 00:42:52;;;;;;;60.75;39.63;;;-6.60;1.00;;;;;;5109987;28;20258;-74
2024/01/10 00:45:20;;;;;;;57.33;37.58;;;-6.70;1.00;;;;;;5109677;28;20322;-73
2024/01/10 00:47:47;;;;;;;62.08;40.22;;;-6.60;1.00;;;;;;5108690;28;20246;-74
2024/01/10 00:50:16;;;;;;;57.40;38.15;;;-6.60;1.00;;;;;;5111109;28;21043;-74
2024/01/10 00:52:43;;;;;;;55.92;36.33;;;-6.60;1.00;;;;;;5109217;28;20235;-73
2024/01/10 00:55:10;;;;;;;62.38;38.35;;;-6.60;1.00;;;;;;5102603;28;20235;-74
2024/01/10 00:57:38;;;;;;;60.78;39.05;;;-6.60;1.00;;;;;;5105285;28;20247;-73
2024/01/10 01:00:08;;;;;;;53.88;39.97;;;-6.70;1.00;;;;;;5108821;28;20271;-74
2024/01/10 01:02:35;;;;;;;58.55;38.55;;;-6.60;1.00;;;;;;5109586;28;20293;-75
2024/01/10 01:05:02;;;;;;;56.50;37.10;;;-6.60;1.00;;;;;;5110894;28;20245;-73
2024/01/10 01:07:31;;;;;;;58.95;38.40;;;-6.60;1.00;;;;;;5108482;28;20313;-74
2024/01/10 01:09:57;;;;;;;68.68;41.25;;;-6.70;1.00;;;;;;5107003;28;20296;-73
2024/01/10 01:12:24;;;;;;;60.20;37.50;;;-6.60;1.00;;;;;;5112083;28;20242;-74
2024/01/10 01:14:51;;;;;;;70.95;39.10;;;-6.60;1.00;;;;;;5111243;28;21057;-70
2024/01/10 01:17:20;;;;;;;53.58;37.47;;;-6.60;1.00;;;;;;5111094;27;20241;-75
2024/01/10 01:19:48;;;;;;;53.88;38.35;;;-6.60;1.00;;;;;;5107021;28;20291;-73
2024/01/10 01:22:15;;;;;;;57.92;39.20;;;-6.60;1.00;;;;;;5110888;28;20239;-75
2024/01/10 01:24:43;;;;;;;60.30;39.97;;;-6.60;1.00;;;;;;5113049;28;20308;-78
2024/01/10 01:27:10;;;;;;;63.20;39.35;;;-6.50;1.00;;;;;;5113019;28;20235;-79
2024/01/10 01:29:38;;;;;;;55.45;38.13;;;-6.60;1.00;;;;;;5113524;28;20247;-79
2024/01/10 01:32:06;;;;;;;57.40;36.97;;;-6.50;1.00;;;;;;5115448;28;20231;-79
2024/01/10 01:34:35;;;;;;;59.65;36.22;;;-6.50;1.00;;;;;;5112488;27;20258;-80
2024/01/10 01:37:02;;;;;;;65.00;39.13;;;-6.40;1.00;;;;;;5108921;28;20239;-80
2024/01/10 01:39:29;;;;;;;52.15;37.22;;;-6.40;1.00;;;;;;5113381;28;20239;-77
2024/01/10 01:41:56;;;;;;;68.22;41.35;;;-6.40;1.00;;;;;;5100699;27;20331;-75
2024/01/10 01:44:24;;;;;;;57.47;38.95;;;-6.40;1.00;;;;;;5113797;27;20239;-79
2024/01/10 01:46:51;;;;;;;61.08;38.15;;;-6.40;1.00;;;;;;5116309;28;20295;-79
2024/01/10 01:49:18;;;;;;;58.28;37.50;;;-6.40;1.00;;;;;;5115560;28;20227;-78
2024/01/10 01:51:52;;;;;;;59.05;38.40;;;-6.40;1.00;;;;;;5115750;28;20235;-79
2024/01/10 01:54:20;;;;;;;61.97;39.47;;;-6.40;1.00;;;;;;5117285;28;20239;-78
2024/01/10 01:56:47;;;;;;;56.78;38.67;;;-6.50;1.00;;;;;;5114487;28;20243;-78
2024/01/10 01:59:15;;;;;;;59.80;39.28;;;-6.50;1.00;;;;;;5114236;27;20297;-77
2024/01/10 02:01:42;;;;;;;61.47;39.40;;;-6.60;1.00;;;;;;5115291;28;20236;-78
2024/01/10 02:04:09;;;;;;;56.92;37.85;;;-6.60;1.00;;;;;;5116285;28;20352;-77
2024/01/10 02:06:36;;;;;;;53.33;34.85;;;-6.70;1.00;;;;;;5116329;28;20326;-78
2024/01/10 02:09:04;;;;;;;59.55;39.53;;;-6.70;1.00;;;;;;5116857;28;20307;-78
2024/01/10 02:11:33;;;;;;;58.13;36.80;;;-6.60;1.00;;;;;;5111962;28;20247;-78
2024/01/10 02:14:01;;;;;;;61.47;39.00;;;-6.70;1.00;;;;;;5118615;27;20232;-79
2024/01/10 02:16:30;;;;;;;61.67;37.97;;;-6.70;1.00;;;;;;5113028;28;20236;-79
2024/01/10 02:18:57;;;;;;;56.13;37.15;;;-6.60;1.00;;;;;;5114383;28;20258;-78
2024/01/10 02:21:27;;;;;;;55.30;37.35;;;-6.60;1.00;;;;;;5109069;27;20220;-77
2024/01/10 02:23:54;;;;;;;68.97;40.75;;;-6.60;1.00;;;;;;5114207;28;21051;-78
2024/01/10 02:26:22;;;;;;;65.07;38.60;;;-6.70;1.00;;;;;;5111853;27;21080;-76
2024/01/10 02:28:49;;;;;;;62.10;39.00;;;-6.70;1.00;;;;;;5113462;28;20265;-77
2024/01/10 02:31:17;;;;;;;60.40;36.50;;;-6.80;1.00;;;;;;5112822;28;20254;-79
2024/01/10 02:33:47;;;;;;;58.08;37.80;;;-6.80;1.00;;;;;;5114579;28;20297;-75
2024/01/10 02:36:17;;;;;;;56.95;38.28;;;-6.80;1.00;;;;;;5112329;28;20277;-73
2024/01/10 02:38:44;;;;;;;69.32;38.33;;;-6.80;1.00;;;;;;5106014;28;20246;-75
2024/01/10 02:41:11;;;;;;;58.05;40.03;;;-6.70;1.00;;;;;;5108114;28;20251;-72
2024/01/10 02:43:42;;;;;;;60.08;39.10;;;-6.70;1.00;;;;;;5108946;28;20285;-70
2024/01/10 02:46:10;;;;;;;64.38;39.33;;;-6.70;1.00;;;;;;5112596;28;20711;-72
2024/01/10 02:48:37;;;;;;;60.10;37.97;;;-6.70;1.00;;;;;;5107762;28;20263;-70
2024/01/10 02:51:04;;;;;;;57.03;39.08;;;-6.70;1.00;;;;;;5110944;27;20818;-70
2024/01/10 02:53:31;;;;;;;57.08;37.30;;;-6.70;1.00;;;;;;5110520;27;20325;-70
2024/01/10 02:55:58;;;;;;;53.83;39.15;;;-6.70;1.00;;;;;;5107503;28;20239;-70
2024/01/10 02:58:25;;;;;;;52.53;37.78;;;-6.70;1.00;;;;;;5109895;27;20345;-70
2024/01/10 03:00:54;;;;;;;59.47;40.78;;;-6.70;1.00;;;;;;5109603;28;20733;-71
2024/01/10 03:03:21;;;;;;;60.80;36.55;;;-6.70;1.00;;;;;;5107767;28;20333;-70
2024/01/10 03:05:50;;;;;;;62.25;40.17;;;-6.70;1.00;;;;;;5108162;28;20305;-72
2024/01/10 03:08:16;;;;;;;53.80;38.95;;;-6.60;1.00;;;;;;5111428;28;21188;-76
2024/01/10 03:10:43;;;;;;;60.33;39.58;;;-6.70;1.00;;;;;;5110758;28;20288;-70
2024/01/10 03:13:10;;;;;;;61.85;39.15;;;-6.70;1.00;;;;;;5109700;28;20277;-70
2024/01/10 03:15:37;;;;;;;61.58;37.92;;;-6.70;1.00;;;;;;5107670;27;20690;-72
2024/01/10 03:18:06;;;;;;;57.45;39.78;;;-6.80;1.00;;;;;;5110514;28;20239;-72
2024/01/10 03:20:33;;;;;;;63.58;41.03;;;-6.80;1.00;;;;;;5109206;28;20325;-77
2024/01/10 03:22:59;;;;;;;60.80;39.53;;;-6.80;1.00;;;;;;5111786;27;20334;-74
2024/01/10 03:25:26;;;;;;;58.63;38.60;;;-6.80;1.00;;;;;;5107003;28;20318;-72
2024/01/10 03:27:53;;;;;;;60.55;38.78;;;-6.80;1.00;;;;;;5107849;28;20322;-72
2024/01/10 03:30:24;;;;;;;63.15;39.60;;;-6.80;1.00;;;;;;5109381;28;20280;-72
2024/01/10 03:32:51;;;;;;;56.35;38.60;;;-6.80;1.00;;;;;;5114101;28;20239;-72
2024/01/10 03:35:19;;;;;;;64.57;40.30;;;-6.90;1.00;;;;;;5107580;28;20758;-72
2024/01/10 03:37:46;;;;;;;60.95;37.92;;;-6.90;1.00;;;;;;5112059;28;20270;-72
2024/01/10 03:40:14;;;;;;;68.53;40.58;;;-6.90;1.00;;;;;;5110700;28;20841;-69
2024/01/10 03:42:42;;;;;;;60.85;42.22;;;-6.90;1.00;;;;;;5107138;28;20766;-71
2024/01/10 03:45:10;;;;;;;69.75;39.78;;;-6.90;1.00;;;;;;5108421;28;20390;-71
2024/01/10 03:47:37;;;;;;;56.00;41.22;;;-6.90;1.00;;;;;;5110075;28;20297;-70
2024/01/10 03:50:05;;;;;;;58.42;39.22;;;-6.90;1.00;;;;;;5109516;28;20305;-71
2024/01/10 03:52:33;;;;;;;61.20;39.80;;;-7.00;1.00;;;;;;5108523;27;21032;-73
2024/01/10 03:55:02;;;;;;;59.28;37.97;;;-7.00;1.00;;;;;;5108356;28;20293;-73
2024/01/10 03:57:34;;;;;;;58.95;38.22;;;-7.00;1.00;;;;;;5110546;28;20246;-71
2024/01/10 04:00:01;;;;;;;63.70;39.85;;;-7.00;1.00;;;;;;5107271;27;20261;-71
2024/01/10 04:02:28;;;;;;;58.83;38.00;;;-7.00;1.00;;;;;;5107366;28;20273;-70
2024/01/10 04:04:55;;;;;;;59.95;39.83;;;-7.00;1.00;;;;;;5095359;28;20340;-72
2024/01/10 04:07:22;;;;;;;64.80;42.10;;;-7.00;1.00;;;;;;5092520;28;20242;-72
2024/01/10 04:09:51;;;;;;;63.17;42.35;;;-7.00;1.00;;;;;;5112623;27;20339;-71
2024/01/10 04:12:18;;;;;;;63.72;40.78;;;-6.90;1.00;;;;;;5105995;28;21152;-71
2024/01/10 04:14:45;;;;;;;63.03;41.10;;;-7.00;1.00;;;;;;5108942;28;20318;-71
2024/01/10 04:17:12;;;;;;;64.68;41.33;;;-7.00;1.00;;;;;;5112355;27;20297;-70
2024/01/10 04:19:39;;;;;;;60.67;38.10;;;-6.90;1.00;;;;;;5110978;28;21003;-75
2024/01/10 04:22:06;;;;;;;63.35;40.67;;;-6.90;1.00;;;;;;5111258;27;20412;-73
2024/01/10 04:24:33;;;;;;;55.65;37.55;;;-7.00;1.00;;;;;;5085945;28;20336;-71
2024/01/10 04:27:01;;;;;;;67.65;40.92;;;-6.90;1.00;;;;;;5111707;27;20235;-71
2024/01/10 04:29:28;;;;;;;66.28;40.78;;;-6.90;1.00;;;;;;5111197;28;20325;-71
2024/01/10 04:31:56;;;;;;;61.90;37.00;;;-6.90;1.00;;;;;;5109785;28;20336;-69
2024/01/10 04:34:24;;;;;;;59.17;40.95;;;-6.90;1.00;;;;;;5109868;28;20876;-70
2024/01/10 04:36:52;;;;;;;59.67;40.30;;;-7.00;1.00;;;;;;5109084;28;20231;-72
2024/01/10 04:39:22;;;;;;;66.05;42.00;;;-6.90;1.00;;;;;;5110235;28;20619;-72
2024/01/10 04:41:50;;;;;;;66.32;39.70;;;-6.90;1.00;;;;;;5109582;28;20237;-75
2024/01/10 04:44:19;;;;;;;69.53;41.38;;;-6.90;1.00;;;;;;5109375;28;20235;-71
2024/01/10 04:46:45;;;;;;;60.33;40.40;;;-6.90;1.00;;;;;;5108314;28;20330;-72
2024/01/10 04:49:13;;;;;;;60.63;40.10;;;-6.90;1.00;;;;;;5111752;28;20235;-71
2024/01/10 04:51:40;;;;;;;60.75;40.25;;;-6.90;1.00;;;;;;5110432;28;20235;-74
2024/01/10 04:54:07;;;;;;;54.35;36.45;;;-6.90;1.00;;;;;;5109280;27;20289;-77
2024/01/10 04:56:37;;;;;;;60.08;41.00;;;-6.90;1.00;;;;;;5109495;28;20242;-73
2024/01/10 04:59:04;;;;;;;58.17;38.80;;;-6.90;1.00;;;;;;5107906;28;20231;-73
2024/01/10 05:01:33;;;;;;;61.30;38.92;;;-6.90;1.00;;;;;;5110689;28;20266;-73
2024/01/10 05:03:59;;;;;;;56.35;37.05;;;-6.90;1.00;;;;;;5109432;28;20285;-73
2024/01/10 05:06:26;;;;;;;65.22;38.03;;;-6.90;1.00;;;;;;5108716;27;20245;-73
2024/01/10 05:08:57;;;;;;;63.83;40.75;;;-6.90;1.00;;;;;;5112951;27;20243;-76
2024/01/10 05:11:25;;;;;;;68.80;42.25;;;-6.90;1.00;;;;;;5108105;27;20298;-73
2024/01/10 05:13:53;;;;;;;70.47;41.47;;;-6.90;1.00;;;;;;5108326;28;20745;-74
2024/01/10 05:16:20;;;;;;;69.78;40.38;;;-6.90;1.00;;;;;;5107926;27;20307;-77
2024/01/10 05:18:51;;;;;;;60.70;42.22;;;-6.90;1.00;;;;;;5107535;27;20235;-75
2024/01/10 05:21:18;;;;;;;57.88;37.88;;;-6.90;1.00;;;;;;5108713;27;20285;-74
2024/01/10 05:23:46;;;;;;;69.35;41.88;;;-6.80;1.00;;;;;;5110176;27;20239;-75
2024/01/10 05:26:13;;;;;;;63.42;39.85;;;-6.90;1.00;;;;;;5108573;27;20312;-74
2024/01/10 05:28:40;;;;;;;67.45;40.10;;;-6.90;1.00;;;;;;5107414;28;20331;-73
2024/01/10 05:31:07;;;;;;;56.40;37.13;;;-6.90;1.00;;;;;;5111045;27;20239;-74
2024/01/10 05:33:34;;;;;;;68.55;42.25;;;-6.90;1.00;;;;;;5111286;28;20227;-75
2024/01/10 05:36:02;;;;;;;68.45;39.75;;;-6.90;1.00;;;;;;5110587;27;20234;-74
2024/01/10 05:38:29;;;;;;;62.40;40.78;;;-6.90;1.00;;;;;;5111801;27;21053;-73
2024/01/10 05:40:56;;;;;;;65.65;43.25;;;-6.80;1.00;;;;;;5108320;28;20263;-73
2024/01/10 05:43:25;;;;;;;75.38;44.83;;;-6.80;1.00;;;;;;5110475;28;20329;-73
2024/01/10 05:45:53;;;;;;;60.95;41.80;;;-6.80;1.00;;;;;;5108648;27;20318;-73
2024/01/10 05:48:20;;;;;;;70.55;41.75;;;-6.80;1.00;;;;;;5108867;27;20304;-77
2024/01/10 05:50:47;;;;;;;74.75;51.17;;;-6.80;1.00;;;;;;5102183;27;20239;-74
2024/01/10 05:53:16;;;;;;;65.68;42.28;;;-6.80;1.00;;;;;;5110592;28;20239;-74
2024/01/10 05:55:45;;;;;;;65.28;38.78;;;-6.80;1.00;;;;;;5106064;27;20227;-72
2024/01/10 05:58:12;;;;;;;61.35;42.08;;;-6.80;1.00;;;;;;5107706;28;20963;-74
2024/01/10 06:00:39;;;;;;;65.90;40.20;;;-6.80;1.00;;;;;;5108728;27;20259;-74
2024/01/10 06:03:07;;;;;;;64.75;41.30;;;-6.80;1.00;;;;;;5109052;27;20828;-71
2024/01/10 06:05:34;;;;;;;64.88;43.00;;;-6.80;1.00;;;;;;5108174;27;20234;-70
2024/01/10 06:08:03;;;;;;;59.60;37.30;;;-6.90;1.00;;;;;;5106234;27;20238;-71
2024/01/10 06:10:32;;;;;;;64.05;40.33;;;-6.70;1.00;;;;;;5107092;28;20318;-72
2024/01/10 06:13:01;;;;;;;72.40;44.70;;;-6.70;1.00;;;;;;5107539;27;20235;-71
2024/01/10 06:15:28;;;;;;;70.82;42.70;;;-6.60;1.00;;;;;;5105685;28;20235;-76
2024/01/10 06:17:55;;;;;;;69.30;45.50;;;-6.60;1.00;;;;;;5109056;27;20243;-72
2024/01/10 06:20:22;;;;;;;83.47;46.30;;;-6.60;1.00;;;;;;5108628;27;20251;-71
2024/01/10 06:22:49;;;;;;;67.00;41.72;;;-6.60;1.00;;;;;;5093878;28;20242;-72
2024/01/10 06:25:18;;;;;;;64.72;42.70;;;-6.50;1.00;;;;;;5110240;27;20343;-72
2024/01/10 06:27:46;;;;;;;68.10;43.75;;;-6.50;1.00;;;;;;5107177;27;20286;-71
2024/01/10 06:30:13;;;;;;;66.68;42.38;;;-6.50;1.00;;;;;;5090535;28;20727;-73
2024/01/10 06:32:40;;;;;;;65.78;43.30;;;-6.50;1.00;;;;;;5109263;27;20730;-72
2024/01/10 06:35:09;;;;;;;70.18;41.42;;;-6.50;1.00;;;;;;5111589;28;21112;-72
2024/01/10 06:37:36;;;;;;;65.55;42.17;;;-6.60;1.00;;;;;;5107366;27;20983;-71
2024/01/10 06:40:05;;;;;;;64.68;41.85;;;-6.60;1.00;;;;;;5107538;27;20292;-78
2024/01/10 06:42:34;;;;;;;67.88;43.30;;;-6.70;1.00;;;;;;5112326;27;20236;-72
2024/01/10 06:45:12;;;;;;;58.70;38.53;;;-6.80;1.00;;;;;;5110724;28;20269;-71
2024/01/10 06:47:41;;;;;;;68.57;41.13;;;-6.70;1.00;;;;;;5112287;27;20237;-70
2024/01/10 06:50:09;;;;;;;76.72;43.35;;;-6.80;1.00;;;;;;5111570;28;20239;-70
2024/01/10 06:52:37;;;;;;;73.30;43.15;;;-6.80;1.00;;;;;;5109810;27;20266;-72
2024/01/10 06:55:05;;;;;;;74.97;44.95;;;-6.70;1.00;;;;;;5110519;27;20231;-70
2024/01/10 06:57:32;;;;;;;74.75;42.10;;;-6.80;1.00;;;;;;5110891;28;20231;-70
2024/01/10 07:00:01;;;;;;;65.75;39.97;;;-6.70;1.00;;;;;;5111673;28;21157;-70
2024/01/10 07:02:32;;;;;;;65.50;43.55;;;-6.70;1.00;;;;;;5108950;27;20243;-73
2024/01/10 07:04:59;;;;;;;65.28;40.95;;;-6.70;1.00;;;;;;5109425;27;20236;-70
2024/01/10 07:07:27;;;;;;;73.88;42.55;;;-6.70;1.00;;;;;;5110478;27;20719;-72
2024/01/10 07:09:54;;;;;;;68.95;43.50;;;-6.70;1.00;;;;;;5110812;28;20952;-69
2024/01/10 07:12:21;;;;;;;63.33;42.88;;;-6.70;1.00;;;;;;5114281;27;20235;-69
2024/01/10 07:14:48;;;;;;;76.32;45.40;;;-6.70;1.00;;;;;;5109087;27;21105;-76
2024/01/10 07:17:15;;;;;;;67.32;43.70;;;-6.60;1.00;;;;;;5107313;27;20280;-77
2024/01/10 07:19:46;;;;;;;68.43;43.10;;;-6.70;1.00;;;;;;5111733;28;20779;-76
2024/01/10 07:22:12;;;;;;;57.38;40.72;;;-6.60;1.00;;;;;;5114712;27;20236;-80
2024/01/10 07:24:40;;;;;;;66.82;45.20;;;-6.60;1.00;;;;;;5106853;27;20259;-75
2024/01/10 07:27:07;;;;;;;77.85;44.13;;;-6.70;1.00;;;;;;5110334;27;20251;-76
2024/01/10 07:29:35;;;;;;;60.92;41.90;;;-6.70;1.00;;;;;;5080635;28;20320;-77
2024/01/10 07:32:03;;;;;;;68.82;40.97;;;-6.70;1.00;;;;;;5108000;27;20240;-76
2024/01/10 07:34:30;;;;;;;67.28;41.85;;;-6.70;1.00;;;;;;5104221;28;20273;-74
2024/01/10 07:36:59;;;;;;;63.63;40.03;;;-6.70;1.00;;;;;;5114245;27;20293;-77
2024/01/10 07:39:26;;;;;;;63.10;40.70;;;-6.70;1.00;;;;;;5097174;27;20239;-72
2024/01/10 07:41:53;;;;;;;67.78;42.85;;;-6.70;1.00;;;;;;5107859;27;20242;-74
2024/01/10 07:44:20;;;;;;;65.60;43.20;;;-6.70;1.00;;;;;;5107465;27;20228;-71
2024/01/10 07:46:48;;;;;;;69.47;42.03;;;-6.70;1.00;;;;;;5107275;27;20956;-75
2024/01/10 07:49:16;;;;;;;69.05;42.00;;;-6.60;1.00;;;;;;5109589;27;20246;-75
2024/01/10 07:51:43;;;;;;;66.68;44.00;;;-6.60;1.00;;;;;;5108214;28;20244;-72
2024/01/10 07:54:11;;;;;;;61.90;42.28;;;-6.70;1.00;;;;;;5109144;27;20722;-75
2024/01/10 07:56:40;;;;;;;70.70;41.95;;;-6.60;1.00;;;;;;5111672;27;20829;-77
2024/01/10 07:59:07;;;;;;;74.45;43.95;;;-6.60;1.00;;;;;;5111234;27;20322;-77
2024/01/10 08:01:34;;;;;;;64.18;38.53;;;-6.50;1.00;;;;;;5108361;28;20223;-78
2024/01/10 08:04:02;;;;;;;70.82;46.00;;;-6.40;1.00;;;;;;5113399;28;21189;-78
2024/01/10 08:06:29;;;;;;;61.30;40.53;;;-6.40;1.00;;;;;;5113967;27;20235;-75
2024/01/10 08:08:56;;;;;;;66.20;40.85;;;-6.40;1.00;;;;;;5115016;27;20301;-78
2024/01/10 08:11:25;;;;;;;65.40;41.90;;;-6.30;1.00;;;;;;5109407;27;20311;-78
2024/01/10 08:13:53;;;;;;;64.47;41.95;;;-6.30;1.00;;;;;;5114859;28;20266;-78
2024/01/10 08:16:19;;;;;;;63.08;42.20;;;-6.20;1.00;;;;;;5114403;28;20243;-76
2024/01/10 08:18:46;;;;;;;66.50;43.00;;;-6.20;1.00;;;;;;5112684;27;20247;-77
2024/01/10 08:21:13;;;;;;;65.75;41.33;;;-6.10;1.00;;;;;;5109688;27;20239;-78
2024/01/10 08:23:41;;;;;;;77.88;49.72;;;-6.00;1.00;;;;;;5111312;27;20231;-75
2024/01/10 08:26:09;;;;;;;69.60;43.92;;;-5.80;1.00;;;;;;5114434;28;20231;-75
2024/01/10 08:28:37;;;;;;;68.78;43.15;;;-5.40;1.00;;;;;;5112390;27;20242;-70
2024/01/10 08:31:05;;;;;;;71.38;44.67;;;-4.80;1.00;;;;;;5110466;28;20245;-72
2024/01/10 08:33:34;;;;;;;61.85;42.35;;;-4.10;1.00;;;;;;5111210;27;20254;-72
2024/01/10 08:36:03;;;;;;;63.42;42.85;;;-3.50;1.00;;;;;;5112388;28;20323;-73
2024/01/10 08:38:35;;;;;;;78.57;44.95;;;-2.90;1.00;;;;;;5105826;28;20304;-74
2024/01/10 08:41:03;;;;;;;69.28;42.65;;;-2.60;1.00;;;;;;5112981;28;20262;-76
2024/01/10 08:43:37;;;;;;;65.88;42.30;;;-2.60;1.00;;;;;;5112331;28;20627;-75
2024/01/10 08:46:06;;;;;;;68.65;44.63;;;-2.80;1.00;;;;;;5106720;27;20245;-75
2024/01/10 08:48:33;;;;;;;66.50;44.90;;;-2.90;1.00;;;;;;5104146;27;20239;-72
2024/01/10 08:51:00;;;;;;;63.20;44.40;;;-3.10;1.00;;;;;;5106585;27;20293;-74
2024/01/10 08:53:27;;;;;;;66.00;42.90;;;-3.30;1.00;;;;;;5106556;27;20327;-71
2024/01/10 08:55:54;;;;;;;64.68;42.40;;;-3.40;1.00;;;;;;5106556;27;20984;-71
2024/01/10 08:58:22;;;;;;;63.30;44.63;;;-3.60;1.00;;;;;;5108527;27;20347;-70
2024/01/10 09:00:49;;;;;;;72.43;44.00;;;-3.70;1.00;;;;;;5110999;28;20416;-72
2024/01/10 09:03:18;;;;;;;61.97;42.42;;;-3.70;1.00;;;;;;5107019;27;20235;-74
2024/01/10 09:05:46;;;;;;;76.93;50.40;;;-3.80;1.00;;;;;;5107675;27;20269;-73
2024/01/10 09:08:13;;;;;;;69.28;42.38;;;-3.70;1.00;;;;;;5108006;27;20231;-74
2024/01/10 09:13:24;;;;;;;91.00;51.50;;;-3.70;1.00;;;;;;5105327;28;20235;-74
2024/01/10 09:15:52;;;;;;;93.78;47.75;;;-3.60;1.00;;;;;;5104827;27;20232;-70
2024/01/10 09:18:21;;;;;;;66.13;44.42;;;-3.50;1.00;;;;;;5106391;27;20276;-72
2024/01/10 09:20:49;;;;;;;63.92;43.88;;;-3.40;1.00;;;;;;5109124;27;20235;-72
2024/01/10 09:23:20;;;;;;;61.45;40.17;;;-3.20;1.00;;;;;;5079773;28;20232;-74
2024/01/10 09:25:47;;;;;;;67.97;42.58;;;-2.80;1.00;;;;;;5107096;28;20231;-75
2024/01/10 09:28:14;;;;;;;69.75;43.30;;;-2.50;1.00;;;;;;5104745;27;20246;-74
2024/01/10 09:30:42;;;;;;;61.55;41.17;;;-2.40;1.00;;;;;;5110294;27;20703;-74
2024/01/10 09:33:09;;;;;;;68.97;42.55;;;-1.90;1.00;;;;;;5094128;27;20330;-75
2024/01/10 09:35:38;;;;;;;64.30;41.72;;;-1.50;1.00;;;;;;5106357;27;20243;-73
2024/01/10 09:38:05;;;;;;;55.55;41.10;;;-1.30;1.00;;;;;;5110614;27;20242;-72
2024/01/10 09:40:32;;;;;;;62.65;42.00;;;-1.40;1.00;;;;;;5105917;27;20236;-73
2024/01/10 09:42:59;;;;;;;69.00;43.28;;;-1.30;1.00;;;;;;5107233;27;20734;-74
2024/01/10 09:45:29;;;;;;;64.55;44.13;;;-1.50;1.00;;;;;;5105501;27;20231;-76
2024/01/10 09:48:00;;;;;;;62.13;40.50;;;-1.60;1.00;;;;;;5107298;28;20322;-75
2024/01/10 09:50:27;;;;;;;62.42;43.10;;;-1.90;1.00;;;;;;5105278;27;20244;-74
2024/01/10 09:53:06;;;;;;;69.03;44.25;;;-1.60;1.00;;;;;;5106365;27;21890;-74
2024/01/10 09:55:38;;;;;;;75.45;47.67;;;-1.20;1.00;;;;;;5107331;27;20262;-75
2024/01/10 09:58:08;;;;;;;63.17;42.53;;;-0.80;1.00;;;;;;5105247;27;20242;-74
2024/01/10 10:00:37;;;;;;;67.85;46.08;;;-0.70;1.00;;;;;;5108347;28;20258;-74
2024/01/10 10:03:08;;;;;;;63.00;44.25;;;-0.30;1.00;;;;;;5111296;28;20243;-77
2024/01/10 10:05:38;;;;;;;66.53;45.10;;;-0.10;1.00;;;;;;5108395;27;20719;-76
2024/01/10 10:08:11;;;;;;;68.05;45.45;;;0.10;1.00;;;;;;5090006;28;20246;-75
2024/01/10 10:10:44;;;;;;;70.82;45.63;;;0.50;1.00;;;;;;5111020;28;20440;-74
2024/01/10 10:13:26;;;;;;;69.05;45.40;;;1.00;1.00;;;;;;5092944;28;20261;-75
2024/01/10 10:16:06;;;;;;;69.53;45.40;;;1.40;1.00;;;;;;5112307;28;20231;-77
2024/01/10 10:18:33;;;;;;;62.42;44.25;;;1.30;1.00;;;;;;5096293;27;20274;-75
2024/01/10 10:21:12;;;;;;;63.47;42.58;;;1.10;1.00;;;;;;5097844;28;20255;-77
2024/01/10 10:23:42;;;;;;;59.05;40.72;;;0.70;1.00;;;;;;5111326;27;20330;-76
2024/01/10 10:26:19;;;;;;;61.47;41.20;;;0.50;1.00;;;;;;5113737;28;20244;-78
2024/01/10 10:28:49;;;;;;;58.25;40.53;;;0.80;1.00;;;;;;5118079;27;20239;-77
2024/01/10 10:31:17;;;;;;;64.60;40.65;;;1.20;1.00;;;;;;5112452;27;20323;-79
2024/01/10 10:33:48;;;;;;;64.10;42.35;;;1.90;1.00;;;;;;5110277;28;20238;-77
2024/01/10 10:36:17;;;;;;;58.30;38.88;;;2.40;1.00;;;;;;5115978;27;20228;-77
2024/01/10 10:38:47;;;;;;;52.63;37.03;;;2.30;1.00;;;;;;5118441;28;20227;-78
2024/01/10 10:41:15;;;;;;;54.47;37.10;;;1.70;1.00;;;;;;5103025;27;20239;-79
2024/01/10 10:43:42;;;;;;;60.70;37.83;;;1.50;1.00;;;;;;5116751;27;20239;-79
2024/01/10 10:46:12;;;;;;;53.10;36.97;;;2.30;1.00;;;;;;5115228;28;20913;-77
2024/01/10 10:48:39;;;;;;;46.50;33.65;;;3.00;1.00;;;;;;5114805;27;20240;-82
2024/01/10 10:51:08;;;;;;;46.30;33.35;;;2.90;1.00;;;;;;5116129;28;20254;-78
2024/01/10 10:53:38;;;;;;;47.53;32.28;;;2.70;1.00;;;;;;5118499;28;20253;-79
2024/01/10 10:56:08;;;;;;;49.28;34.85;;;3.30;1.00;;;;;;5112752;28;20727;-76
2024/01/10 10:58:40;;;;;;;49.83;34.17;;;4.70;1.00;;;;;;5111630;27;20239;-78
2024/01/10 11:01:08;;;;;;;49.00;34.78;;;5.40;1.00;;;;;;5113095;27;20238;-77
2024/01/10 11:03:37;;;;;;;44.33;31.60;;;5.40;1.00;;;;;;5108057;27;20254;-77
2024/01/10 11:06:05;;;;;;;49.30;32.33;;;4.80;1.00;;;;;;5111029;27;20314;-75
2024/01/10 11:08:37;;;;;;;46.38;31.15;;;4.50;1.00;;;;;;5103639;27;20247;-76
2024/01/10 11:11:13;;;;;;;44.97;30.83;;;3.90;1.00;;;;;;5111571;27;20296;-78
2024/01/10 11:14:03;;;;;;;47.55;34.25;;;3.40;1.00;;;;;;5112247;28;20384;-76
2024/01/10 11:17:04;;;;;;;46.78;32.47;;;3.50;1.00;;;;;;5088285;27;20251;-79
2024/01/10 11:19:55;;;;;;;47.60;31.88;;;4.20;1.00;;;;;;5106539;28;20242;-77
2024/01/10 11:22:41;;;;;;;46.25;33.90;;;4.40;1.00;;;;;;5112031;27;20269;-75
2024/01/10 11:25:08;;;;;;;43.00;29.77;;;4.70;1.00;;;;;;5111733;27;20388;-76
2024/01/10 11:27:37;;;;;;;46.97;31.75;;;5.30;1.00;;;;;;5110387;27;21005;-78
2024/01/10 11:30:07;;;;;;;40.35;30.90;;;5.20;1.00;;;;;;5111491;27;20231;-77
2024/01/10 11:32:35;;;;;;;39.63;30.55;;;5.10;1.00;;;;;;5111267;28;20247;-78
2024/01/10 11:35:16;;;;;;;44.13;30.52;;;5.20;1.00;;;;;;5111724;27;20338;-76
2024/01/10 11:37:46;;;;;;;41.65;32.33;;;4.80;1.00;;;;;;5107520;27;20231;-77
2024/01/10 11:40:14;;;;;;;45.67;30.13;;;4.50;1.00;;;;;;5111921;27;20254;-77
2024/01/10 11:42:47;;;;;;;39.40;29.38;;;4.60;1.00;;;;;;5106576;27;20236;-75
2024/01/10 11:45:37;;;;;;;45.05;31.00;;;4.50;1.00;;;;;;5109874;27;20235;-76
2024/01/10 11:48:08;;;;;;;43.50;28.88;;;5.00;1.00;;;;;;5111688;27;20239;-73
2024/01/10 11:50:36;;;;;;;42.63;30.23;;;5.50;1.00;;;;;;5113357;27;20242;-76
2024/01/10 11:53:03;;;;;;;43.58;32.78;;;5.80;1.00;;;;;;5112732;27;20285;-76
2024/01/10 11:55:48;;;;;;;43.70;31.02;;;6.20;1.00;;;;;;5113516;27;20235;-78
2024/01/10 11:58:18;;;;;;;44.50;31.92;;;6.60;1.00;;;;;;5111662;27;20338;-76
2024/01/10 12:00:47;;;;;;;43.60;32.63;;;6.40;1.00;;;;;;5110146;27;20236;-77
2024/01/10 12:03:15;;;;;;;41.30;28.88;;;6.20;1.00;;;;;;5092235;27;20237;-77
2024/01/10 12:05:43;;;;;;;44.83;28.55;;;6.90;1.00;;;;;;5107787;27;20260;-75
2024/01/10 12:08:14;;;;;;;37.83;28.70;;;8.10;1.00;;;;;;5111079;27;20226;-77
2024/01/10 12:10:41;;;;;;;40.60;29.60;;;8.70;1.00;;;;;;5109905;27;20563;-77
2024/01/10 12:13:08;;;;;;;39.83;29.87;;;9.10;1.00;;;;;;5111396;27;20509;-78
2024/01/10 12:15:36;;;;;;;35.80;28.70;;;9.40;1.00;;;;;;5111768;27;20437;-78
2024/01/10 12:18:06;;;;;;;46.50;29.87;;;9.70;1.00;;;;;;5113752;27;20449;-77
2024/01/10 12:20:35;;;;;;;41.70;29.20;;;9.70;1.00;;;;;;5103584;27;20473;-77
2024/01/10 12:23:03;;;;;;;40.70;29.13;;;9.40;1.00;;;;;;5115004;27;20465;-76
2024/01/10 12:25:31;;;;;;;40.67;28.53;;;9.40;1.00;;;;;;5106098;28;20529;-77
2024/01/10 12:28:02;;;;;;;41.20;28.73;;;9.50;1.00;;;;;;5111968;27;20503;-75
2024/01/10 12:30:31;;;;;;;37.07;29.70;;;9.70;1.00;;;;;;5113482;27;20535;-77
2024/01/10 12:33:02;;;;;;;51.97;37.33;;;9.70;1.00;;;;;;5112537;27;20442;-76
2024/01/10 12:35:29;;;;;;;43.00;30.47;;;9.60;1.00;;;;;;5113192;27;21090;-76
2024/01/10 12:37:59;;;;;;;37.77;28.30;;;9.40;1.00;;;;;;5109981;27;20947;-77
2024/01/10 12:40:27;;;;;;;34.73;26.37;;;9.00;1.00;;;;;;5105554;27;20978;-77
2024/01/10 12:43:04;;;;;;;37.43;28.60;;;8.40;1.00;;;;;;5113793;27;20468;-77
2024/01/10 12:45:31;;;;;;;38.93;27.00;;;8.30;1.00;;;;;;5114785;27;20548;-76
2024/01/10 12:48:02;;;;;;;40.63;30.37;;;8.50;1.00;;;;;;5116614;28;20526;-77